sensor_id;sensor_type;location;lat;lon;timestamp;P1;durP1;ratioP1;P2;durP2;ratioP2
21114;SDS011;10715;48.546;9.896;2022-07-03T00:01:30;3.13;;;1.60;;
21114;SDS011;10715;48.546;9.896;2022-07-03T00:03:59;5.03;;;1.20;;
21114;SDS011;10715;48.546;9.896;2022-07-03T00:06:28;1.60;;;0.77;;
21114;SDS011;10715;48.546;9.896;2022-07-03T00:08:58;1.10;;;1.00;;
21114;SDS011;10715;48.546;9.896;2022-07-03T00:11:31;1.03;;;0.70;;
21114;SDS011;10715;48.546;9.896;2022-07-03T00:14:01;1.03;;;0.73;;
21114;SDS011;10715;48.546;9.896;2022-07-03T00:16:26;5.47;;;0.97;;
21114;SDS011;10715;48.546;9.896;2022-07-03T00:18:52;1.73;;;1.03;;
21114;SDS011;10715;48.546;9.896;2022-07-03T00:21:24;1.30;;;0.80;;
21114;SDS011;10715;48.546;9.896;2022-07-03T00:26:45;3.13;;;0.90;;
21114;SDS011;10715;48.546;9.896;2022-07-03T00:29:16;2.53;;;1.37;;
21114;SDS011;10715;48.546;9.896;2022-07-03T00:31:44;0.93;;;0.77;;
21114;SDS011;10715;48.546;9.896;2022-07-03T00:34:12;1.97;;;1.13;;
21114;SDS011;10715;48.546;9.896;2022-07-03T00:36:40;1.77;;;1.10;;
21114;SDS011;10715;48.546;9.896;2022-07-03T00:39:07;1.37;;;0.80;;
21114;SDS011;10715;48.546;9.896;2022-07-03T00:41:33;2.00;;;1.10;;
21114;SDS011;10715;48.546;9.896;2022-07-03T00:44:00;2.67;;;1.30;;
21114;SDS011;10715;48.546;9.896;2022-07-03T00:46:27;1.37;;;1.20;;
21114;SDS011;10715;48.546;9.896;2022-07-03T00:49:03;1.10;;;0.97;;
21114;SDS011;10715;48.546;9.896;2022-07-03T00:51:38;1.10;;;0.90;;
21114;SDS011;10715;48.546;9.896;2022-07-03T00:54:08;1.17;;;1.07;;
21114;SDS011;10715;48.546;9.896;2022-07-03T00:56:39;1.03;;;0.90;;
21114;SDS011;10715;48.546;9.896;2022-07-03T00:59:09;2.10;;;0.90;;
21114;SDS011;10715;48.546;9.896;2022-07-03T01:01:35;1.10;;;0.80;;
21114;SDS011;10715;48.546;9.896;2022-07-03T01:04:08;1.30;;;1.07;;
21114;SDS011;10715;48.546;9.896;2022-07-03T01:06:51;2.10;;;1.10;;
21114;SDS011;10715;48.546;9.896;2022-07-03T01:13:07;4.30;;;1.43;;
21114;SDS011;10715;48.546;9.896;2022-07-03T01:18:12;3.13;;;1.03;;
21114;SDS011;10715;48.546;9.896;2022-07-03T01:20:50;3.60;;;1.53;;
21114;SDS011;10715;48.546;9.896;2022-07-03T01:23:31;1.50;;;1.40;;
21114;SDS011;10715;48.546;9.896;2022-07-03T01:26:15;1.33;;;1.23;;
21114;SDS011;10715;48.546;9.896;2022-07-03T01:28:44;3.10;;;1.00;;
21114;SDS011;10715;48.546;9.896;2022-07-03T01:31:13;1.10;;;0.93;;
21114;SDS011;10715;48.546;9.896;2022-07-03T01:33:45;2.17;;;1.10;;
21114;SDS011;10715;48.546;9.896;2022-07-03T01:36:15;2.27;;;1.27;;
21114;SDS011;10715;48.546;9.896;2022-07-03T01:38:42;3.00;;;1.23;;
21114;SDS011;10715;48.546;9.896;2022-07-03T01:41:09;2.60;;;1.03;;
21114;SDS011;10715;48.546;9.896;2022-07-03T01:43:37;2.77;;;0.97;;
21114;SDS011;10715;48.546;9.896;2022-07-03T01:46:07;1.33;;;1.10;;
21114;SDS011;10715;48.546;9.896;2022-07-03T01:48:34;3.17;;;0.90;;
21114;SDS011;10715;48.546;9.896;2022-07-03T01:51:01;3.60;;;1.70;;
21114;SDS011;10715;48.546;9.896;2022-07-03T01:53:29;1.43;;;1.03;;
21114;SDS011;10715;48.546;9.896;2022-07-03T01:55:56;1.00;;;0.70;;
21114;SDS011;10715;48.546;9.896;2022-07-03T01:58:23;3.20;;;1.10;;
21114;SDS011;10715;48.546;9.896;2022-07-03T02:03:24;1.40;;;1.30;;
21114;SDS011;10715;48.546;9.896;2022-07-03T02:05:55;1.33;;;0.90;;
21114;SDS011;10715;48.546;9.896;2022-07-03T02:08:33;1.13;;;0.90;;
21114;SDS011;10715;48.546;9.896;2022-07-03T02:16:22;1.27;;;1.17;;
21114;SDS011;10715;48.546;9.896;2022-07-03T02:18:57;1.73;;;1.10;;
21114;SDS011;10715;48.546;9.896;2022-07-03T02:21:28;4.80;;;2.20;;
21114;SDS011;10715;48.546;9.896;2022-07-03T02:26:33;0.80;;;0.60;;
21114;SDS011;10715;48.546;9.896;2022-07-03T02:29:04;1.40;;;0.77;;
21114;SDS011;10715;48.546;9.896;2022-07-03T02:31:37;1.50;;;0.90;;
21114;SDS011;10715;48.546;9.896;2022-07-03T02:34:06;1.53;;;1.43;;
21114;SDS011;10715;48.546;9.896;2022-07-03T02:36:33;1.20;;;0.80;;
21114;SDS011;10715;48.546;9.896;2022-07-03T02:39:00;1.30;;;1.03;;
21114;SDS011;10715;48.546;9.896;2022-07-03T02:41:49;1.10;;;0.90;;
21114;SDS011;10715;48.546;9.896;2022-07-03T02:44:34;1.47;;;1.20;;
21114;SDS011;10715;48.546;9.896;2022-07-03T02:47:22;1.77;;;1.53;;
21114;SDS011;10715;48.546;9.896;2022-07-03T02:50:03;1.40;;;1.10;;
21114;SDS011;10715;48.546;9.896;2022-07-03T02:55:02;5.23;;;1.20;;
21114;SDS011;10715;48.546;9.896;2022-07-03T02:57:37;1.43;;;1.17;;
21114;SDS011;10715;48.546;9.896;2022-07-03T03:00:06;1.20;;;1.10;;
21114;SDS011;10715;48.546;9.896;2022-07-03T03:05:05;5.20;;;1.13;;
21114;SDS011;10715;48.546;9.896;2022-07-03T03:08:07;1.63;;;1.10;;
21114;SDS011;10715;48.546;9.896;2022-07-03T03:10:37;1.07;;;0.87;;
21114;SDS011;10715;48.546;9.896;2022-07-03T03:13:05;3.03;;;1.57;;
21114;SDS011;10715;48.546;9.896;2022-07-03T03:15:34;2.10;;;1.10;;
21114;SDS011;10715;48.546;9.896;2022-07-03T03:18:11;2.13;;;1.33;;
21114;SDS011;10715;48.546;9.896;2022-07-03T03:20:38;3.53;;;1.00;;
21114;SDS011;10715;48.546;9.896;2022-07-03T03:25:46;2.07;;;1.00;;
21114;SDS011;10715;48.546;9.896;2022-07-03T03:28:13;1.10;;;0.97;;
21114;SDS011;10715;48.546;9.896;2022-07-03T03:30:39;1.10;;;0.80;;
21114;SDS011;10715;48.546;9.896;2022-07-03T03:33:05;1.57;;;0.90;;
21114;SDS011;10715;48.546;9.896;2022-07-03T03:35:33;1.43;;;1.13;;
21114;SDS011;10715;48.546;9.896;2022-07-03T03:38:00;1.00;;;0.90;;
21114;SDS011;10715;48.546;9.896;2022-07-03T03:40:26;4.47;;;1.30;;
21114;SDS011;10715;48.546;9.896;2022-07-03T03:42:52;2.10;;;1.50;;
21114;SDS011;10715;48.546;9.896;2022-07-03T03:45:18;1.30;;;1.17;;
21114;SDS011;10715;48.546;9.896;2022-07-03T03:47:44;1.60;;;1.50;;
21114;SDS011;10715;48.546;9.896;2022-07-03T03:50:10;1.77;;;0.90;;
21114;SDS011;10715;48.546;9.896;2022-07-03T03:52:36;2.50;;;1.27;;
21114;SDS011;10715;48.546;9.896;2022-07-03T03:55:02;2.37;;;1.07;;
21114;SDS011;10715;48.546;9.896;2022-07-03T03:57:28;3.77;;;1.30;;
21114;SDS011;10715;48.546;9.896;2022-07-03T03:59:54;1.10;;;0.90;;
21114;SDS011;10715;48.546;9.896;2022-07-03T04:02:21;1.20;;;1.00;;
21114;SDS011;10715;48.546;9.896;2022-07-03T04:04:46;5.60;;;1.37;;
21114;SDS011;10715;48.546;9.896;2022-07-03T04:07:12;3.20;;;1.00;;
21114;SDS011;10715;48.546;9.896;2022-07-03T04:09:38;1.37;;;1.07;;
21114;SDS011;10715;48.546;9.896;2022-07-03T04:12:04;1.20;;;0.90;;
21114;SDS011;10715;48.546;9.896;2022-07-03T04:14:30;1.43;;;0.80;;
21114;SDS011;10715;48.546;9.896;2022-07-03T04:16:56;1.00;;;0.73;;
21114;SDS011;10715;48.546;9.896;2022-07-03T04:19:22;1.20;;;1.00;;
21114;SDS011;10715;48.546;9.896;2022-07-03T04:21:48;1.17;;;1.00;;
21114;SDS011;10715;48.546;9.896;2022-07-03T04:24:16;1.27;;;1.00;;
21114;SDS011;10715;48.546;9.896;2022-07-03T04:26:43;1.30;;;1.00;;
21114;SDS011;10715;48.546;9.896;2022-07-03T04:29:09;1.10;;;0.80;;
21114;SDS011;10715;48.546;9.896;2022-07-03T04:31:35;2.13;;;1.03;;
21114;SDS011;10715;48.546;9.896;2022-07-03T04:34:01;1.30;;;1.10;;
21114;SDS011;10715;48.546;9.896;2022-07-03T04:36:26;3.07;;;1.37;;
21114;SDS011;10715;48.546;9.896;2022-07-03T04:38:53;3.23;;;0.87;;
21114;SDS011;10715;48.546;9.896;2022-07-03T04:41:20;3.57;;;1.20;;
21114;SDS011;10715;48.546;9.896;2022-07-03T04:43:46;1.03;;;0.90;;
21114;SDS011;10715;48.546;9.896;2022-07-03T04:46:11;2.90;;;1.03;;
21114;SDS011;10715;48.546;9.896;2022-07-03T04:48:37;1.27;;;1.10;;
21114;SDS011;10715;48.546;9.896;2022-07-03T04:51:03;1.30;;;0.97;;
21114;SDS011;10715;48.546;9.896;2022-07-03T04:53:29;1.97;;;1.10;;
21114;SDS011;10715;48.546;9.896;2022-07-03T04:55:55;1.53;;;1.40;;
21114;SDS011;10715;48.546;9.896;2022-07-03T04:58:24;1.10;;;0.70;;
21114;SDS011;10715;48.546;9.896;2022-07-03T05:00:50;1.27;;;1.17;;
21114;SDS011;10715;48.546;9.896;2022-07-03T05:03:16;1.30;;;1.10;;
21114;SDS011;10715;48.546;9.896;2022-07-03T05:05:42;1.90;;;1.50;;
21114;SDS011;10715;48.546;9.896;2022-07-03T05:08:08;2.50;;;2.40;;
21114;SDS011;10715;48.546;9.896;2022-07-03T05:10:35;2.37;;;2.27;;
21114;SDS011;10715;48.546;9.896;2022-07-03T05:13:01;3.57;;;2.43;;
21114;SDS011;10715;48.546;9.896;2022-07-03T05:15:26;1.73;;;1.63;;
21114;SDS011;10715;48.546;9.896;2022-07-03T05:17:52;2.33;;;2.00;;
21114;SDS011;10715;48.546;9.896;2022-07-03T05:20:18;1.60;;;1.50;;
21114;SDS011;10715;48.546;9.896;2022-07-03T05:22:50;1.70;;;1.60;;
21114;SDS011;10715;48.546;9.896;2022-07-03T05:25:17;2.90;;;2.70;;
21114;SDS011;10715;48.546;9.896;2022-07-03T05:27:43;1.27;;;1.17;;
21114;SDS011;10715;48.546;9.896;2022-07-03T05:30:09;1.80;;;1.33;;
21114;SDS011;10715;48.546;9.896;2022-07-03T05:32:36;1.50;;;1.40;;
21114;SDS011;10715;48.546;9.896;2022-07-03T05:35:02;4.10;;;0.97;;
21114;SDS011;10715;48.546;9.896;2022-07-03T05:37:28;0.90;;;0.50;;
21114;SDS011;10715;48.546;9.896;2022-07-03T05:39:54;1.63;;;0.60;;
21114;SDS011;10715;48.546;9.896;2022-07-03T05:42:19;1.03;;;0.70;;
21114;SDS011;10715;48.546;9.896;2022-07-03T05:44:45;1.93;;;0.70;;
21114;SDS011;10715;48.546;9.896;2022-07-03T05:47:11;0.80;;;0.60;;
21114;SDS011;10715;48.546;9.896;2022-07-03T05:49:37;1.63;;;0.60;;
21114;SDS011;10715;48.546;9.896;2022-07-03T05:52:03;3.10;;;0.60;;
21114;SDS011;10715;48.546;9.896;2022-07-03T05:54:29;0.93;;;0.60;;
21114;SDS011;10715;48.546;9.896;2022-07-03T05:56:55;0.97;;;0.90;;
21114;SDS011;10715;48.546;9.896;2022-07-03T05:59:21;2.40;;;0.80;;
21114;SDS011;10715;48.546;9.896;2022-07-03T06:01:47;1.57;;;1.47;;
21114;SDS011;10715;48.546;9.896;2022-07-03T06:04:13;1.00;;;0.60;;
21114;SDS011;10715;48.546;9.896;2022-07-03T06:06:44;1.20;;;0.60;;
21114;SDS011;10715;48.546;9.896;2022-07-03T06:09:10;0.60;;;0.47;;
21114;SDS011;10715;48.546;9.896;2022-07-03T06:11:36;1.50;;;0.60;;
21114;SDS011;10715;48.546;9.896;2022-07-03T06:14:01;0.97;;;0.60;;
21114;SDS011;10715;48.546;9.896;2022-07-03T06:16:27;1.83;;;0.60;;
21114;SDS011;10715;48.546;9.896;2022-07-03T06:18:53;0.80;;;0.50;;
21114;SDS011;10715;48.546;9.896;2022-07-03T06:21:19;0.80;;;0.60;;
21114;SDS011;10715;48.546;9.896;2022-07-03T06:23:44;0.90;;;0.60;;
21114;SDS011;10715;48.546;9.896;2022-07-03T06:26:10;1.20;;;0.70;;
21114;SDS011;10715;48.546;9.896;2022-07-03T06:28:36;0.90;;;0.60;;
21114;SDS011;10715;48.546;9.896;2022-07-03T06:31:02;2.10;;;0.60;;
21114;SDS011;10715;48.546;9.896;2022-07-03T06:33:28;2.47;;;0.73;;
21114;SDS011;10715;48.546;9.896;2022-07-03T06:35:53;0.70;;;0.50;;
21114;SDS011;10715;48.546;9.896;2022-07-03T06:38:19;1.70;;;0.57;;
21114;SDS011;10715;48.546;9.896;2022-07-03T06:40:45;2.00;;;0.40;;
21114;SDS011;10715;48.546;9.896;2022-07-03T06:43:11;1.33;;;0.57;;
21114;SDS011;10715;48.546;9.896;2022-07-03T06:45:37;0.90;;;0.50;;
21114;SDS011;10715;48.546;9.896;2022-07-03T06:48:03;0.60;;;0.40;;
21114;SDS011;10715;48.546;9.896;2022-07-03T06:50:30;0.80;;;0.50;;
21114;SDS011;10715;48.546;9.896;2022-07-03T06:52:55;2.90;;;0.50;;
21114;SDS011;10715;48.546;9.896;2022-07-03T06:55:21;6.97;;;0.50;;
21114;SDS011;10715;48.546;9.896;2022-07-03T06:57:47;1.33;;;0.50;;
21114;SDS011;10715;48.546;9.896;2022-07-03T07:00:13;0.80;;;0.40;;
21114;SDS011;10715;48.546;9.896;2022-07-03T07:02:39;0.87;;;0.50;;
21114;SDS011;10715;48.546;9.896;2022-07-03T07:05:05;0.70;;;0.40;;
21114;SDS011;10715;48.546;9.896;2022-07-03T07:07:31;0.80;;;0.40;;
21114;SDS011;10715;48.546;9.896;2022-07-03T07:09:57;1.30;;;0.50;;
21114;SDS011;10715;48.546;9.896;2022-07-03T07:12:22;1.00;;;0.50;;
21114;SDS011;10715;48.546;9.896;2022-07-03T07:14:48;1.57;;;0.47;;
21114;SDS011;10715;48.546;9.896;2022-07-03T07:17:14;0.60;;;0.50;;
21114;SDS011;10715;48.546;9.896;2022-07-03T07:19:40;0.80;;;0.40;;
21114;SDS011;10715;48.546;9.896;2022-07-03T07:22:06;0.60;;;0.30;;
21114;SDS011;10715;48.546;9.896;2022-07-03T07:24:32;0.67;;;0.40;;
21114;SDS011;10715;48.546;9.896;2022-07-03T07:26:58;0.70;;;0.40;;
21114;SDS011;10715;48.546;9.896;2022-07-03T07:29:24;0.80;;;0.40;;
21114;SDS011;10715;48.546;9.896;2022-07-03T07:31:50;0.60;;;0.40;;
21114;SDS011;10715;48.546;9.896;2022-07-03T07:34:15;0.70;;;0.40;;
21114;SDS011;10715;48.546;9.896;2022-07-03T07:36:41;0.60;;;0.30;;
21114;SDS011;10715;48.546;9.896;2022-07-03T07:39:07;0.77;;;0.40;;
21114;SDS011;10715;48.546;9.896;2022-07-03T07:41:33;2.47;;;0.40;;
21114;SDS011;10715;48.546;9.896;2022-07-03T07:43:59;0.70;;;0.40;;
21114;SDS011;10715;48.546;9.896;2022-07-03T07:46:25;0.60;;;0.40;;
21114;SDS011;10715;48.546;9.896;2022-07-03T07:48:51;1.53;;;0.40;;
21114;SDS011;10715;48.546;9.896;2022-07-03T07:51:18;4.40;;;0.40;;
21114;SDS011;10715;48.546;9.896;2022-07-03T07:53:43;0.93;;;0.40;;
21114;SDS011;10715;48.546;9.896;2022-07-03T07:56:09;0.67;;;0.47;;
21114;SDS011;10715;48.546;9.896;2022-07-03T07:58:35;0.60;;;0.40;;
21114;SDS011;10715;48.546;9.896;2022-07-03T08:01:01;0.80;;;0.50;;
21114;SDS011;10715;48.546;9.896;2022-07-03T08:03:45;0.90;;;0.33;;
21114;SDS011;10715;48.546;9.896;2022-07-03T08:06:29;0.60;;;0.37;;
21114;SDS011;10715;48.546;9.896;2022-07-03T08:08:55;0.70;;;0.30;;
21114;SDS011;10715;48.546;9.896;2022-07-03T08:11:20;1.03;;;0.30;;
21114;SDS011;10715;48.546;9.896;2022-07-03T08:13:46;0.80;;;0.30;;
21114;SDS011;10715;48.546;9.896;2022-07-03T08:16:12;0.50;;;0.40;;
21114;SDS011;10715;48.546;9.896;2022-07-03T08:18:38;0.80;;;0.40;;
21114;SDS011;10715;48.546;9.896;2022-07-03T08:21:04;0.93;;;0.40;;
21114;SDS011;10715;48.546;9.896;2022-07-03T08:23:30;0.83;;;0.40;;
21114;SDS011;10715;48.546;9.896;2022-07-03T08:25:56;0.80;;;0.40;;
21114;SDS011;10715;48.546;9.896;2022-07-03T08:28:22;0.70;;;0.40;;
21114;SDS011;10715;48.546;9.896;2022-07-03T08:30:47;0.63;;;0.40;;
21114;SDS011;10715;48.546;9.896;2022-07-03T08:33:13;0.80;;;0.40;;
21114;SDS011;10715;48.546;9.896;2022-07-03T08:35:40;0.70;;;0.30;;
21114;SDS011;10715;48.546;9.896;2022-07-03T08:38:05;1.40;;;0.30;;
21114;SDS011;10715;48.546;9.896;2022-07-03T08:40:31;0.70;;;0.40;;
21114;SDS011;10715;48.546;9.896;2022-07-03T08:42:58;0.70;;;0.30;;
21114;SDS011;10715;48.546;9.896;2022-07-03T08:45:28;0.60;;;0.30;;
21114;SDS011;10715;48.546;9.896;2022-07-03T08:47:56;0.67;;;0.30;;
21114;SDS011;10715;48.546;9.896;2022-07-03T08:50:24;0.70;;;0.40;;
21114;SDS011;10715;48.546;9.896;2022-07-03T08:52:50;0.70;;;0.30;;
21114;SDS011;10715;48.546;9.896;2022-07-03T08:55:17;0.93;;;0.30;;
21114;SDS011;10715;48.546;9.896;2022-07-03T08:57:44;0.60;;;0.40;;
21114;SDS011;10715;48.546;9.896;2022-07-03T09:00:15;0.60;;;0.30;;
21114;SDS011;10715;48.546;9.896;2022-07-03T09:02:45;0.57;;;0.30;;
21114;SDS011;10715;48.546;9.896;2022-07-03T09:05:13;0.70;;;0.40;;
21114;SDS011;10715;48.546;9.896;2022-07-03T09:07:42;0.90;;;0.50;;
21114;SDS011;10715;48.546;9.896;2022-07-03T09:10:10;2.00;;;0.40;;
21114;SDS011;10715;48.546;9.896;2022-07-03T09:12:38;1.00;;;0.50;;
21114;SDS011;10715;48.546;9.896;2022-07-03T09:15:05;0.90;;;0.37;;
21114;SDS011;10715;48.546;9.896;2022-07-03T09:17:32;0.73;;;0.50;;
21114;SDS011;10715;48.546;9.896;2022-07-03T09:19:59;0.50;;;0.30;;
21114;SDS011;10715;48.546;9.896;2022-07-03T09:22:29;3.30;;;0.40;;
21114;SDS011;10715;48.546;9.896;2022-07-03T09:25:06;0.60;;;0.40;;
21114;SDS011;10715;48.546;9.896;2022-07-03T09:27:35;0.60;;;0.30;;
21114;SDS011;10715;48.546;9.896;2022-07-03T09:30:04;0.67;;;0.37;;
21114;SDS011;10715;48.546;9.896;2022-07-03T09:32:32;1.43;;;0.40;;
21114;SDS011;10715;48.546;9.896;2022-07-03T09:35:15;0.70;;;0.40;;
21114;SDS011;10715;48.546;9.896;2022-07-03T09:37:52;0.90;;;0.40;;
21114;SDS011;10715;48.546;9.896;2022-07-03T09:40:28;0.70;;;0.30;;
21114;SDS011;10715;48.546;9.896;2022-07-03T09:43:12;0.50;;;0.23;;
21114;SDS011;10715;48.546;9.896;2022-07-03T09:48:40;0.60;;;0.30;;
21114;SDS011;10715;48.546;9.896;2022-07-03T09:51:10;0.70;;;0.50;;
21114;SDS011;10715;48.546;9.896;2022-07-03T09:53:48;0.70;;;0.40;;
21114;SDS011;10715;48.546;9.896;2022-07-03T09:56:19;2.70;;;0.50;;
21114;SDS011;10715;48.546;9.896;2022-07-03T10:01:32;0.60;;;0.30;;
21114;SDS011;10715;48.546;9.896;2022-07-03T10:04:09;1.23;;;0.30;;
21114;SDS011;10715;48.546;9.896;2022-07-03T10:09:23;0.50;;;0.20;;
21114;SDS011;10715;48.546;9.896;2022-07-03T10:11:53;1.00;;;0.30;;
21114;SDS011;10715;48.546;9.896;2022-07-03T10:14:20;0.50;;;0.20;;
21114;SDS011;10715;48.546;9.896;2022-07-03T10:16:49;0.60;;;0.30;;
21114;SDS011;10715;48.546;9.896;2022-07-03T10:19:22;0.50;;;0.30;;
21114;SDS011;10715;48.546;9.896;2022-07-03T10:24:18;0.50;;;0.30;;
21114;SDS011;10715;48.546;9.896;2022-07-03T10:26:47;0.73;;;0.30;;
21114;SDS011;10715;48.546;9.896;2022-07-03T10:29:14;0.60;;;0.30;;
21114;SDS011;10715;48.546;9.896;2022-07-03T10:31:44;0.70;;;0.30;;
21114;SDS011;10715;48.546;9.896;2022-07-03T10:34:23;0.67;;;0.37;;
21114;SDS011;10715;48.546;9.896;2022-07-03T10:37:02;0.50;;;0.30;;
21114;SDS011;10715;48.546;9.896;2022-07-03T10:39:38;1.73;;;0.30;;
21114;SDS011;10715;48.546;9.896;2022-07-03T10:42:15;0.70;;;0.40;;
21114;SDS011;10715;48.546;9.896;2022-07-03T10:45:09;0.60;;;0.40;;
21114;SDS011;10715;48.546;9.896;2022-07-03T10:47:46;0.50;;;0.30;;
21114;SDS011;10715;48.546;9.896;2022-07-03T10:52:42;1.50;;;0.30;;
21114;SDS011;10715;48.546;9.896;2022-07-03T10:55:08;0.50;;;0.30;;
21114;SDS011;10715;48.546;9.896;2022-07-03T10:57:36;0.93;;;0.40;;
21114;SDS011;10715;48.546;9.896;2022-07-03T11:00:04;0.50;;;0.30;;
21114;SDS011;10715;48.546;9.896;2022-07-03T11:02:34;0.60;;;0.37;;
21114;SDS011;10715;48.546;9.896;2022-07-03T11:20:33;0.97;;;0.87;;
21114;SDS011;10715;48.546;9.896;2022-07-03T11:25:53;1.40;;;0.40;;
21114;SDS011;10715;48.546;9.896;2022-07-03T11:36:30;0.90;;;0.60;;
21114;SDS011;10715;48.546;9.896;2022-07-03T11:41:25;0.80;;;0.40;;
21114;SDS011;10715;48.546;9.896;2022-07-03T11:43:53;2.47;;;0.70;;
21114;SDS011;10715;48.546;9.896;2022-07-03T11:46:24;0.60;;;0.40;;
21114;SDS011;10715;48.546;9.896;2022-07-03T11:49:07;1.57;;;0.60;;
21114;SDS011;10715;48.546;9.896;2022-07-03T11:51:34;1.50;;;0.87;;
21114;SDS011;10715;48.546;9.896;2022-07-03T11:54:00;0.83;;;0.50;;
21114;SDS011;10715;48.546;9.896;2022-07-03T11:56:30;5.03;;;0.40;;
21114;SDS011;10715;48.546;9.896;2022-07-03T11:58:58;0.70;;;0.40;;
21114;SDS011;10715;48.546;9.896;2022-07-03T12:04:02;0.93;;;0.40;;
21114;SDS011;10715;48.546;9.896;2022-07-03T12:06:35;1.50;;;0.40;;
21114;SDS011;10715;48.546;9.896;2022-07-03T12:14:41;0.80;;;0.40;;
21114;SDS011;10715;48.546;9.896;2022-07-03T12:17:11;0.80;;;0.43;;
21114;SDS011;10715;48.546;9.896;2022-07-03T12:19:47;1.33;;;0.50;;
21114;SDS011;10715;48.546;9.896;2022-07-03T12:27:26;2.00;;;0.40;;
21114;SDS011;10715;48.546;9.896;2022-07-03T12:29:52;0.80;;;0.40;;
21114;SDS011;10715;48.546;9.896;2022-07-03T12:32:18;0.60;;;0.37;;
21114;SDS011;10715;48.546;9.896;2022-07-03T12:34:45;0.80;;;0.50;;
21114;SDS011;10715;48.546;9.896;2022-07-03T12:37:11;1.23;;;0.30;;
21114;SDS011;10715;48.546;9.896;2022-07-03T12:39:40;0.70;;;0.40;;
21114;SDS011;10715;48.546;9.896;2022-07-03T12:42:19;1.10;;;0.50;;
21114;SDS011;10715;48.546;9.896;2022-07-03T12:47:22;1.27;;;0.50;;
21114;SDS011;10715;48.546;9.896;2022-07-03T12:49:58;1.20;;;0.40;;
21114;SDS011;10715;48.546;9.896;2022-07-03T12:52:26;1.87;;;0.40;;
21114;SDS011;10715;48.546;9.896;2022-07-03T12:54:53;0.80;;;0.33;;
21114;SDS011;10715;48.546;9.896;2022-07-03T12:57:19;1.70;;;0.40;;
21114;SDS011;10715;48.546;9.896;2022-07-03T13:00:06;1.00;;;0.53;;
21114;SDS011;10715;48.546;9.896;2022-07-03T13:02:35;0.60;;;0.40;;
21114;SDS011;10715;48.546;9.896;2022-07-03T13:05:12;1.43;;;0.40;;
21114;SDS011;10715;48.546;9.896;2022-07-03T13:07:43;0.80;;;0.33;;
21114;SDS011;10715;48.546;9.896;2022-07-03T13:10:10;0.77;;;0.40;;
21114;SDS011;10715;48.546;9.896;2022-07-03T13:12:50;1.03;;;0.40;;
21114;SDS011;10715;48.546;9.896;2022-07-03T13:15:20;3.93;;;0.50;;
21114;SDS011;10715;48.546;9.896;2022-07-03T13:20:19;0.90;;;0.60;;
21114;SDS011;10715;48.546;9.896;2022-07-03T13:22:54;0.63;;;0.40;;
21114;SDS011;10715;48.546;9.896;2022-07-03T13:25:21;0.90;;;0.40;;
21114;SDS011;10715;48.546;9.896;2022-07-03T13:27:47;0.60;;;0.33;;
21114;SDS011;10715;48.546;9.896;2022-07-03T13:30:14;0.60;;;0.30;;
21114;SDS011;10715;48.546;9.896;2022-07-03T13:32:41;1.00;;;0.40;;
21114;SDS011;10715;48.546;9.896;2022-07-03T13:35:07;0.70;;;0.40;;
21114;SDS011;10715;48.546;9.896;2022-07-03T13:37:34;0.73;;;0.40;;
21114;SDS011;10715;48.546;9.896;2022-07-03T13:40:03;0.97;;;0.40;;
21114;SDS011;10715;48.546;9.896;2022-07-03T13:42:30;0.60;;;0.40;;
21114;SDS011;10715;48.546;9.896;2022-07-03T13:44:56;0.80;;;0.50;;
21114;SDS011;10715;48.546;9.896;2022-07-03T13:47:22;0.80;;;0.40;;
21114;SDS011;10715;48.546;9.896;2022-07-03T13:49:48;2.13;;;0.60;;
21114;SDS011;10715;48.546;9.896;2022-07-03T13:52:14;1.27;;;0.60;;
21114;SDS011;10715;48.546;9.896;2022-07-03T13:54:41;0.60;;;0.40;;
21114;SDS011;10715;48.546;9.896;2022-07-03T13:57:07;0.60;;;0.40;;
21114;SDS011;10715;48.546;9.896;2022-07-03T13:59:33;0.70;;;0.40;;
21114;SDS011;10715;48.546;9.896;2022-07-03T14:01:59;0.80;;;0.40;;
21114;SDS011;10715;48.546;9.896;2022-07-03T14:04:25;0.73;;;0.40;;
21114;SDS011;10715;48.546;9.896;2022-07-03T14:06:51;3.63;;;0.40;;
21114;SDS011;10715;48.546;9.896;2022-07-03T14:09:17;1.00;;;0.40;;
21114;SDS011;10715;48.546;9.896;2022-07-03T14:11:43;0.60;;;0.40;;
21114;SDS011;10715;48.546;9.896;2022-07-03T14:14:09;0.67;;;0.40;;
21114;SDS011;10715;48.546;9.896;2022-07-03T14:16:35;0.70;;;0.40;;
21114;SDS011;10715;48.546;9.896;2022-07-03T14:19:00;2.07;;;0.30;;
21114;SDS011;10715;48.546;9.896;2022-07-03T14:21:28;0.90;;;0.40;;
21114;SDS011;10715;48.546;9.896;2022-07-03T14:23:54;1.20;;;0.40;;
21114;SDS011;10715;48.546;9.896;2022-07-03T14:26:20;0.80;;;0.50;;
21114;SDS011;10715;48.546;9.896;2022-07-03T14:29:06;2.87;;;0.40;;
21114;SDS011;10715;48.546;9.896;2022-07-03T14:31:54;0.70;;;0.40;;
21114;SDS011;10715;48.546;9.896;2022-07-03T14:34:39;0.77;;;0.40;;
21114;SDS011;10715;48.546;9.896;2022-07-03T14:37:04;0.70;;;0.40;;
21114;SDS011;10715;48.546;9.896;2022-07-03T14:39:30;1.37;;;0.40;;
21114;SDS011;10715;48.546;9.896;2022-07-03T14:41:56;0.90;;;0.60;;
21114;SDS011;10715;48.546;9.896;2022-07-03T14:44:22;0.87;;;0.50;;
21114;SDS011;10715;48.546;9.896;2022-07-03T14:46:50;0.70;;;0.40;;
21114;SDS011;10715;48.546;9.896;2022-07-03T14:49:16;0.90;;;0.50;;
21114;SDS011;10715;48.546;9.896;2022-07-03T14:51:42;1.20;;;0.40;;
21114;SDS011;10715;48.546;9.896;2022-07-03T14:54:08;0.70;;;0.40;;
21114;SDS011;10715;48.546;9.896;2022-07-03T14:56:36;0.70;;;0.40;;
21114;SDS011;10715;48.546;9.896;2022-07-03T14:59:08;0.90;;;0.50;;
21114;SDS011;10715;48.546;9.896;2022-07-03T15:01:35;0.53;;;0.30;;
21114;SDS011;10715;48.546;9.896;2022-07-03T15:04:04;0.73;;;0.40;;
21114;SDS011;10715;48.546;9.896;2022-07-03T15:06:45;0.90;;;0.50;;
21114;SDS011;10715;48.546;9.896;2022-07-03T15:09:13;0.70;;;0.40;;
21114;SDS011;10715;48.546;9.896;2022-07-03T15:11:54;0.80;;;0.40;;
21114;SDS011;10715;48.546;9.896;2022-07-03T15:14:42;1.13;;;0.50;;
21114;SDS011;10715;48.546;9.896;2022-07-03T15:17:08;1.27;;;0.40;;
21114;SDS011;10715;48.546;9.896;2022-07-03T15:19:37;1.37;;;0.40;;
21114;SDS011;10715;48.546;9.896;2022-07-03T15:22:03;3.67;;;0.40;;
21114;SDS011;10715;48.546;9.896;2022-07-03T15:24:30;0.87;;;0.47;;
21114;SDS011;10715;48.546;9.896;2022-07-03T15:26:56;0.70;;;0.40;;
21114;SDS011;10715;48.546;9.896;2022-07-03T15:29:22;0.83;;;0.60;;
21114;SDS011;10715;48.546;9.896;2022-07-03T15:31:48;1.93;;;0.50;;
21114;SDS011;10715;48.546;9.896;2022-07-03T15:34:15;0.70;;;0.47;;
21114;SDS011;10715;48.546;9.896;2022-07-03T15:36:51;1.63;;;0.40;;
21114;SDS011;10715;48.546;9.896;2022-07-03T15:45:08;0.70;;;0.40;;
21114;SDS011;10715;48.546;9.896;2022-07-03T15:50:57;0.80;;;0.60;;
21114;SDS011;10715;48.546;9.896;2022-07-03T15:53:38;7.90;;;0.50;;
21114;SDS011;10715;48.546;9.896;2022-07-03T15:56:06;2.50;;;0.50;;
21114;SDS011;10715;48.546;9.896;2022-07-03T15:58:33;0.97;;;0.50;;
21114;SDS011;10715;48.546;9.896;2022-07-03T16:01:04;1.10;;;0.50;;
21114;SDS011;10715;48.546;9.896;2022-07-03T16:03:54;0.80;;;0.40;;
21114;SDS011;10715;48.546;9.896;2022-07-03T16:06:23;0.70;;;0.40;;
21114;SDS011;10715;48.546;9.896;2022-07-03T16:08:50;3.67;;;0.50;;
21114;SDS011;10715;48.546;9.896;2022-07-03T16:11:16;0.70;;;0.30;;
21114;SDS011;10715;48.546;9.896;2022-07-03T16:13:42;0.90;;;0.50;;
21114;SDS011;10715;48.546;9.896;2022-07-03T16:16:10;0.70;;;0.43;;
21114;SDS011;10715;48.546;9.896;2022-07-03T16:18:38;0.80;;;0.50;;
21114;SDS011;10715;48.546;9.896;2022-07-03T16:21:05;0.80;;;0.50;;
21114;SDS011;10715;48.546;9.896;2022-07-03T16:23:33;0.80;;;0.50;;
21114;SDS011;10715;48.546;9.896;2022-07-03T16:25:59;0.80;;;0.40;;
21114;SDS011;10715;48.546;9.896;2022-07-03T16:28:26;0.70;;;0.50;;
21114;SDS011;10715;48.546;9.896;2022-07-03T16:30:54;0.67;;;0.43;;
21114;SDS011;10715;48.546;9.896;2022-07-03T16:33:24;0.77;;;0.50;;
21114;SDS011;10715;48.546;9.896;2022-07-03T16:35:53;2.23;;;0.60;;